sensor_id;sensor_type;location;lat;lon;timestamp;temperature;humidity
5150;DHT22;2593;52.466;13.436;2023-01-10T00:01:41;7.00;1.00
5150;DHT22;2593;52.466;13.436;2023-01-10T00:04:07;7.00;1.00
5150;DHT22;2593;52.466;13.436;2023-01-10T00:06:32;6.90;12.30
5150;DHT22;2593;52.466;13.436;2023-01-10T00:08:58;6.90;99.90
5150;DHT22;2593;52.466;13.436;2023-01-10T00:11:24;6.90;1.00
5150;DHT22;2593;52.466;13.436;2023-01-10T00:14:10;6.90;94.00
5150;DHT22;2593;52.466;13.436;2023-01-10T00:16:36;6.90;99.90
5150;DHT22;2593;52.466;13.436;2023-01-10T00:19:04;6.90;99.90
5150;DHT22;2593;52.466;13.436;2023-01-10T00:21:30;6.80;1.00
5150;DHT22;2593;52.466;13.436;2023-01-10T00:23:56;6.80;99.90
5150;DHT22;2593;52.466;13.436;2023-01-10T00:26:32;6.80;99.90
5150;DHT22;2593;52.466;13.436;2023-01-10T00:28:58;6.80;99.90
5150;DHT22;2593;52.466;13.436;2023-01-10T00:31:24;6.80;99.90
5150;DHT22;2593;52.466;13.436;2023-01-10T00:33:49;6.80;99.90
5150;DHT22;2593;52.466;13.436;2023-01-10T00:36:15;6.90;82.20
5150;DHT22;2593;52.466;13.436;2023-01-10T00:38:40;6.90;1.00
5150;DHT22;2593;52.466;13.436;2023-01-10T00:41:06;7.00;1.00
5150;DHT22;2593;52.466;13.436;2023-01-10T00:43:52;7.00;99.90
5150;DHT22;2593;52.466;13.436;2023-01-10T00:46:23;7.10;45.00
5150;DHT22;2593;52.466;13.436;2023-01-10T00:48:49;7.10;99.90
5150;DHT22;2593;52.466;13.436;2023-01-10T00:51:14;7.10;99.90
5150;DHT22;2593;52.466;13.436;2023-01-10T00:53:40;7.10;99.90
5150;DHT22;2593;52.466;13.436;2023-01-10T00:56:06;7.10;45.40
5150;DHT22;2593;52.466;13.436;2023-01-10T00:58:32;7.10;1.00
5150;DHT22;2593;52.466;13.436;2023-01-10T01:00:58;7.10;1.00
5150;DHT22;2593;52.466;13.436;2023-01-10T01:03:24;7.10;1.00
5150;DHT22;2593;52.466;13.436;2023-01-10T01:05:50;7.10;1.00
5150;DHT22;2593;52.466;13.436;2023-01-10T01:08:17;7.10;1.00
5150;DHT22;2593;52.466;13.436;2023-01-10T01:10:43;7.10;1.00
5150;DHT22;2593;52.466;13.436;2023-01-10T01:13:20;7.10;1.00
5150;DHT22;2593;52.466;13.436;2023-01-10T01:15:46;7.10;99.90
5150;DHT22;2593;52.466;13.436;2023-01-10T01:18:15;7.10;1.00
5150;DHT22;2593;52.466;13.436;2023-01-10T01:20:41;7.10;1.00
5150;DHT22;2593;52.466;13.436;2023-01-10T01:23:07;7.10;1.00
5150;DHT22;2593;52.466;13.436;2023-01-10T01:25:32;7.10;1.00
5150;DHT22;2593;52.466;13.436;2023-01-10T01:27:58;7.10;1.00
5150;DHT22;2593;52.466;13.436;2023-01-10T01:30:24;7.10;1.00
5150;DHT22;2593;52.466;13.436;2023-01-10T01:32:49;7.10;1.00
5150;DHT22;2593;52.466;13.436;2023-01-10T01:35:16;7.10;99.90
5150;DHT22;2593;52.466;13.436;2023-01-10T01:37:42;7.00;99.90
5150;DHT22;2593;52.466;13.436;2023-01-10T01:40:16;7.00;1.00
5150;DHT22;2593;52.466;13.436;2023-01-10T01:42:43;6.90;1.00
5150;DHT22;2593;52.466;13.436;2023-01-10T01:48:35;6.90;99.90
5150;DHT22;2593;52.466;13.436;2023-01-10T01:53:22;6.80;99.90
5150;DHT22;2593;52.466;13.436;2023-01-10T01:55:49;6.80;99.90
5150;DHT22;2593;52.466;13.436;2023-01-10T01:58:18;6.80;1.00
5150;DHT22;2593;52.466;13.436;2023-01-10T02:00:46;6.70;99.90
5150;DHT22;2593;52.466;13.436;2023-01-10T02:03:13;6.70;99.90
5150;DHT22;2593;52.466;13.436;2023-01-10T02:05:40;6.70;1.00
5150;DHT22;2593;52.466;13.436;2023-01-10T02:08:07;6.60;1.00
5150;DHT22;2593;52.466;13.436;2023-01-10T02:13:03;6.60;1.00
5150;DHT22;2593;52.466;13.436;2023-01-10T02:15:29;6.60;58.10
5150;DHT22;2593;52.466;13.436;2023-01-10T02:17:56;6.60;73.50
5150;DHT22;2593;52.466;13.436;2023-01-10T02:20:22;6.50;99.90
5150;DHT22;2593;52.466;13.436;2023-01-10T02:28:46;6.50;99.90
5150;DHT22;2593;52.466;13.436;2023-01-10T02:37:15;6.60;99.90
5150;DHT22;2593;52.466;13.436;2023-01-10T02:42:28;6.70;99.90
5150;DHT22;2593;52.466;13.436;2023-01-10T02:47:37;6.70;95.80
5150;DHT22;2593;52.466;13.436;2023-01-10T02:58:50;6.70;1.00
5150;DHT22;2593;52.466;13.436;2023-01-10T03:07:42;6.80;1.00
5150;DHT22;2593;52.466;13.436;2023-01-10T03:12:50;6.80;1.00
5150;DHT22;2593;52.466;13.436;2023-01-10T03:15:22;6.80;1.00
5150;DHT22;2593;52.466;13.436;2023-01-10T03:17:54;6.90;27.70
5150;DHT22;2593;52.466;13.436;2023-01-10T03:20:22;6.90;99.90
5150;DHT22;2593;52.466;13.436;2023-01-10T03:22:50;6.80;99.90
5150;DHT22;2593;52.466;13.436;2023-01-10T03:25:21;6.80;1.00
5150;DHT22;2593;52.466;13.436;2023-01-10T03:27:54;6.80;1.00
5150;DHT22;2593;52.466;13.436;2023-01-10T03:30:40;6.70;1.00
5150;DHT22;2593;52.466;13.436;2023-01-10T03:33:09;6.70;1.00
5150;DHT22;2593;52.466;13.436;2023-01-10T03:35:45;6.70;1.00
5150;DHT22;2593;52.466;13.436;2023-01-10T03:40:58;6.80;1.00
5150;DHT22;2593;52.466;13.436;2023-01-10T03:46:53;6.80;1.00
5150;DHT22;2593;52.466;13.436;2023-01-10T03:49:22;6.80;1.00
5150;DHT22;2593;52.466;13.436;2023-01-10T03:51:49;6.80;1.00
5150;DHT22;2593;52.466;13.436;2023-01-10T03:54:15;6.80;1.00
5150;DHT22;2593;52.466;13.436;2023-01-10T03:56:46;6.80;1.00
5150;DHT22;2593;52.466;13.436;2023-01-10T03:59:15;6.80;1.00
5150;DHT22;2593;52.466;13.436;2023-01-10T04:01:41;6.80;1.00
5150;DHT22;2593;52.466;13.436;2023-01-10T04:04:06;6.80;1.00
5150;DHT22;2593;52.466;13.436;2023-01-10T04:06:32;6.80;1.00
5150;DHT22;2593;52.466;13.436;2023-01-10T04:08:58;6.80;10.40
5150;DHT22;2593;52.466;13.436;2023-01-10T04:11:23;6.80;88.60
5150;DHT22;2593;52.466;13.436;2023-01-10T04:13:49;6.70;99.90
5150;DHT22;2593;52.466;13.436;2023-01-10T04:16:15;6.80;99.90
5150;DHT22;2593;52.466;13.436;2023-01-10T04:18:40;6.70;99.90
5150;DHT22;2593;52.466;13.436;2023-01-10T04:21:06;6.70;99.90
5150;DHT22;2593;52.466;13.436;2023-01-10T04:23:32;6.70;99.90
5150;DHT22;2593;52.466;13.436;2023-01-10T04:25:57;6.70;99.90
5150;DHT22;2593;52.466;13.436;2023-01-10T04:28:23;6.70;99.90
5150;DHT22;2593;52.466;13.436;2023-01-10T04:30:49;6.70;99.90
5150;DHT22;2593;52.466;13.436;2023-01-10T04:33:14;6.70;99.90
5150;DHT22;2593;52.466;13.436;2023-01-10T04:35:41;6.70;99.90
5150;DHT22;2593;52.466;13.436;2023-01-10T04:38:11;6.70;93.30
5150;DHT22;2593;52.466;13.436;2023-01-10T04:40:36;6.70;98.70
5150;DHT22;2593;52.466;13.436;2023-01-10T04:43:02;6.70;95.10
5150;DHT22;2593;52.466;13.436;2023-01-10T04:45:28;6.70;93.60
5150;DHT22;2593;52.466;13.436;2023-01-10T04:47:53;6.70;81.60
5150;DHT22;2593;52.466;13.436;2023-01-10T04:50:21;6.60;92.40
5150;DHT22;2593;52.466;13.436;2023-01-10T04:52:47;6.60;99.90
5150;DHT22;2593;52.466;13.436;2023-01-10T04:55:12;6.60;99.90
5150;DHT22;2593;52.466;13.436;2023-01-10T04:57:38;6.70;99.90
5150;DHT22;2593;52.466;13.436;2023-01-10T05:00:04;6.60;99.90
5150;DHT22;2593;52.466;13.436;2023-01-10T05:02:30;6.70;99.90
5150;DHT22;2593;52.466;13.436;2023-01-10T05:04:55;6.70;99.90
5150;DHT22;2593;52.466;13.436;2023-01-10T05:07:21;6.70;99.90
5150;DHT22;2593;52.466;13.436;2023-01-10T05:09:47;6.70;99.90
5150;DHT22;2593;52.466;13.436;2023-01-10T05:12:12;6.70;99.90
5150;DHT22;2593;52.466;13.436;2023-01-10T05:14:38;6.70;99.90
5150;DHT22;2593;52.466;13.436;2023-01-10T05:17:03;6.70;99.90
5150;DHT22;2593;52.466;13.436;2023-01-10T05:19:29;6.70;99.90
5150;DHT22;2593;52.466;13.436;2023-01-10T05:21:55;6.70;99.90
5150;DHT22;2593;52.466;13.436;2023-01-10T05:24:20;6.70;99.90
5150;DHT22;2593;52.466;13.436;2023-01-10T05:26:46;6.70;99.90
5150;DHT22;2593;52.466;13.436;2023-01-10T05:29:12;6.70;99.90
5150;DHT22;2593;52.466;13.436;2023-01-10T05:31:39;6.70;99.90
5150;DHT22;2593;52.466;13.436;2023-01-10T05:34:05;6.80;99.90
5150;DHT22;2593;52.466;13.436;2023-01-10T05:36:31;6.80;99.90
5150;DHT22;2593;52.466;13.436;2023-01-10T05:38:56;6.80;59.50
5150;DHT22;2593;52.466;13.436;2023-01-10T05:41:22;6.80;51.30
5150;DHT22;2593;52.466;13.436;2023-01-10T05:43:48;6.80;17.30
5150;DHT22;2593;52.466;13.436;2023-01-10T05:46:14;6.80;1.00
5150;DHT22;2593;52.466;13.436;2023-01-10T05:48:40;6.80;2.20
5150;DHT22;2593;52.466;13.436;2023-01-10T05:51:06;6.80;15.50
5150;DHT22;2593;52.466;13.436;2023-01-10T05:53:32;6.80;8.70
5150;DHT22;2593;52.466;13.436;2023-01-10T05:55:59;6.80;1.00
5150;DHT22;2593;52.466;13.436;2023-01-10T05:58:26;6.80;1.00
5150;DHT22;2593;52.466;13.436;2023-01-10T06:00:53;6.80;3.50
5150;DHT22;2593;52.466;13.436;2023-01-10T06:03:18;6.90;1.00
5150;DHT22;2593;52.466;13.436;2023-01-10T06:05:44;6.80;1.00
5150;DHT22;2593;52.466;13.436;2023-01-10T06:08:10;6.80;1.00
5150;DHT22;2593;52.466;13.436;2023-01-10T06:10:36;6.80;1.00
5150;DHT22;2593;52.466;13.436;2023-01-10T06:13:02;6.80;1.00
5150;DHT22;2593;52.466;13.436;2023-01-10T06:15:29;6.90;1.00
5150;DHT22;2593;52.466;13.436;2023-01-10T06:17:55;6.90;1.00
5150;DHT22;2593;52.466;13.436;2023-01-10T06:20:21;6.80;1.00
5150;DHT22;2593;52.466;13.436;2023-01-10T06:22:46;6.90;1.00
5150;DHT22;2593;52.466;13.436;2023-01-10T06:25:12;6.90;1.00
5150;DHT22;2593;52.466;13.436;2023-01-10T06:27:40;6.90;1.00
5150;DHT22;2593;52.466;13.436;2023-01-10T06:30:06;6.90;1.00
5150;DHT22;2593;52.466;13.436;2023-01-10T06:32:32;6.80;1.00
5150;DHT22;2593;52.466;13.436;2023-01-10T06:34:58;6.80;1.00
5150;DHT22;2593;52.466;13.436;2023-01-10T06:37:23;6.80;1.00
5150;DHT22;2593;52.466;13.436;2023-01-10T06:39:49;6.80;1.00
5150;DHT22;2593;52.466;13.436;2023-01-10T06:42:16;6.80;1.00
5150;DHT22;2593;52.466;13.436;2023-01-10T06:44:41;6.80;1.00
5150;DHT22;2593;52.466;13.436;2023-01-10T06:47:07;6.80;1.00
5150;DHT22;2593;52.466;13.436;2023-01-10T06:49:32;6.80;1.00
5150;DHT22;2593;52.466;13.436;2023-01-10T06:51:58;6.80;1.00
5150;DHT22;2593;52.466;13.436;2023-01-10T06:54:23;6.90;1.00
5150;DHT22;2593;52.466;13.436;2023-01-10T06:56:49;6.90;1.00
5150;DHT22;2593;52.466;13.436;2023-01-10T06:59:15;6.80;1.00
5150;DHT22;2593;52.466;13.436;2023-01-10T07:01:41;6.80;1.00
5150;DHT22;2593;52.466;13.436;2023-01-10T07:04:06;6.90;1.00
5150;DHT22;2593;52.466;13.436;2023-01-10T07:06:36;6.90;1.00
5150;DHT22;2593;52.466;13.436;2023-01-10T07:09:02;6.90;1.00
5150;DHT22;2593;52.466;13.436;2023-01-10T07:11:27;6.90;1.00
5150;DHT22;2593;52.466;13.436;2023-01-10T07:13:53;6.90;1.00
5150;DHT22;2593;52.466;13.436;2023-01-10T07:16:19;6.90;1.00
5150;DHT22;2593;52.466;13.436;2023-01-10T07:18:44;6.90;1.00
5150;DHT22;2593;52.466;13.436;2023-01-10T07:21:11;6.80;1.00
5150;DHT22;2593;52.466;13.436;2023-01-10T07:23:37;6.80;1.00
5150;DHT22;2593;52.466;13.436;2023-01-10T07:26:04;6.70;1.00
5150;DHT22;2593;52.466;13.436;2023-01-10T07:28:31;6.70;1.00
5150;DHT22;2593;52.466;13.436;2023-01-10T07:30:59;6.70;1.00
5150;DHT22;2593;52.466;13.436;2023-01-10T07:33:26;6.70;1.00
5150;DHT22;2593;52.466;13.436;2023-01-10T07:35:51;6.70;1.00
5150;DHT22;2593;52.466;13.436;2023-01-10T07:38:17;6.70;1.00
5150;DHT22;2593;52.466;13.436;2023-01-10T07:40:43;6.70;1.00
5150;DHT22;2593;52.466;13.436;2023-01-10T07:43:08;6.70;1.00
5150;DHT22;2593;52.466;13.436;2023-01-10T07:45:34;6.70;1.00
5150;DHT22;2593;52.466;13.436;2023-01-10T07:48:03;6.70;1.00
5150;DHT22;2593;52.466;13.436;2023-01-10T07:50:31;6.70;1.00
5150;DHT22;2593;52.466;13.436;2023-01-10T07:52:58;6.80;1.00
5150;DHT22;2593;52.466;13.436;2023-01-10T07:55:25;6.80;1.00
5150;DHT22;2593;52.466;13.436;2023-01-10T07:57:52;6.80;1.00
5150;DHT22;2593;52.466;13.436;2023-01-10T08:00:18;6.80;1.00
5150;DHT22;2593;52.466;13.436;2023-01-10T08:02:44;6.80;1.00
5150;DHT22;2593;52.466;13.436;2023-01-10T08:05:10;7.00;19.70
5150;DHT22;2593;52.466;13.436;2023-01-10T08:07:36;7.10;1.00
5150;DHT22;2593;52.466;13.436;2023-01-10T08:10:05;7.00;1.00
5150;DHT22;2593;52.466;13.436;2023-01-10T08:12:31;7.00;1.00
5150;DHT22;2593;52.466;13.436;2023-01-10T08:14:57;7.00;99.90
5150;DHT22;2593;52.466;13.436;2023-01-10T08:17:23;7.10;99.90
5150;DHT22;2593;52.466;13.436;2023-01-10T08:19:48;7.10;99.90
5150;DHT22;2593;52.466;13.436;2023-01-10T08:22:14;7.10;99.90
5150;DHT22;2593;52.466;13.436;2023-01-10T08:24:40;7.20;99.90
5150;DHT22;2593;52.466;13.436;2023-01-10T08:27:05;7.20;1.00
5150;DHT22;2593;52.466;13.436;2023-01-10T08:29:31;7.20;1.00
5150;DHT22;2593;52.466;13.436;2023-01-10T08:31:57;7.20;1.00
5150;DHT22;2593;52.466;13.436;2023-01-10T08:34:23;7.20;1.00
5150;DHT22;2593;52.466;13.436;2023-01-10T08:36:50;7.20;1.00
5150;DHT22;2593;52.466;13.436;2023-01-10T08:39:16;7.20;99.90
5150;DHT22;2593;52.466;13.436;2023-01-10T08:41:42;7.30;99.90
5150;DHT22;2593;52.466;13.436;2023-01-10T08:44:08;7.30;99.90
5150;DHT22;2593;52.466;13.436;2023-01-10T08:46:36;7.30;99.90
5150;DHT22;2593;52.466;13.436;2023-01-10T08:49:02;7.40;37.00
5150;DHT22;2593;52.466;13.436;2023-01-10T08:51:28;7.60;99.90
5150;DHT22;2593;52.466;13.436;2023-01-10T08:53:53;7.80;72.30
5150;DHT22;2593;52.466;13.436;2023-01-10T08:56:19;8.10;1.00
5150;DHT22;2593;52.466;13.436;2023-01-10T08:58:45;8.20;99.90
5150;DHT22;2593;52.466;13.436;2023-01-10T09:01:10;8.20;99.90
5150;DHT22;2593;52.466;13.436;2023-01-10T09:03:37;8.10;99.90
5150;DHT22;2593;52.466;13.436;2023-01-10T09:06:04;8.00;99.90
5150;DHT22;2593;52.466;13.436;2023-01-10T09:08:30;7.90;99.90
5150;DHT22;2593;52.466;13.436;2023-01-10T09:10:58;7.90;1.00
5150;DHT22;2593;52.466;13.436;2023-01-10T09:13:25;7.90;1.00
5150;DHT22;2593;52.466;13.436;2023-01-10T09:15:51;8.10;1.00
5150;DHT22;2593;52.466;13.436;2023-01-10T09:18:17;8.40;99.90
5150;DHT22;2593;52.466;13.436;2023-01-10T09:20:43;8.80;1.00
5150;DHT22;2593;52.466;13.436;2023-01-10T09:23:14;9.20;99.90
5150;DHT22;2593;52.466;13.436;2023-01-10T09:25:50;9.20;1.00
5150;DHT22;2593;52.466;13.436;2023-01-10T09:28:17;9.20;1.00
5150;DHT22;2593;52.466;13.436;2023-01-10T09:30:43;9.40;1.00
5150;DHT22;2593;52.466;13.436;2023-01-10T09:33:10;9.50;1.00
5150;DHT22;2593;52.466;13.436;2023-01-10T09:35:37;9.70;99.90
5150;DHT22;2593;52.466;13.436;2023-01-10T09:38:05;9.70;99.90
5150;DHT22;2593;52.466;13.436;2023-01-10T09:46:08;9.50;99.90
5150;DHT22;2593;52.466;13.436;2023-01-10T09:51:33;9.20;99.90
5150;DHT22;2593;52.466;13.436;2023-01-10T09:54:02;8.90;99.90
5150;DHT22;2593;52.466;13.436;2023-01-10T09:56:30;8.80;1.00
5150;DHT22;2593;52.466;13.436;2023-01-10T09:58:58;8.70;1.00
5150;DHT22;2593;52.466;13.436;2023-01-10T10:01:29;8.70;1.00
5150;DHT22;2593;52.466;13.436;2023-01-10T10:06:51;8.50;99.90
5150;DHT22;2593;52.466;13.436;2023-01-10T10:09:26;8.50;99.90
5150;DHT22;2593;52.466;13.436;2023-01-10T10:15:12;8.40;1.00
5150;DHT22;2593;52.466;13.436;2023-01-10T10:20:30;8.50;1.00
5150;DHT22;2593;52.466;13.436;2023-01-10T10:36:28;8.90;99.90
5150;DHT22;2593;52.466;13.436;2023-01-10T10:38:58;8.80;99.90
5150;DHT22;2593;52.466;13.436;2023-01-10T10:41:33;8.70;85.70
5150;DHT22;2593;52.466;13.436;2023-01-10T10:44:02;8.60;99.90
5150;DHT22;2593;52.466;13.436;2023-01-10T10:46:31;8.60;99.90
5150;DHT22;2593;52.466;13.436;2023-01-10T10:49:05;8.50;99.90
5150;DHT22;2593;52.466;13.436;2023-01-10T10:51:46;8.50;99.90
5150;DHT22;2593;52.466;13.436;2023-01-10T10:54:14;8.70;1.00
5150;DHT22;2593;52.466;13.436;2023-01-10T10:56:42;8.70;1.00
5150;DHT22;2593;52.466;13.436;2023-01-10T10:59:09;8.70;99.90
5150;DHT22;2593;52.466;13.436;2023-01-10T11:01:38;8.70;1.00
5150;DHT22;2593;52.466;13.436;2023-01-10T11:04:10;8.60;1.00
5150;DHT22;2593;52.466;13.436;2023-01-10T11:06:37;8.50;1.00
5150;DHT22;2593;52.466;13.436;2023-01-10T11:09:05;8.50;1.00
5150;DHT22;2593;52.466;13.436;2023-01-10T11:11:34;8.50;1.00
5150;DHT22;2593;52.466;13.436;2023-01-10T11:14:05;8.50;9.70
5150;DHT22;2593;52.466;13.436;2023-01-10T11:16:36;8.50;99.90
5150;DHT22;2593;52.466;13.436;2023-01-10T11:19:09;8.60;99.90
5150;DHT22;2593;52.466;13.436;2023-01-10T11:21:37;8.60;20.40
5150;DHT22;2593;52.466;13.436;2023-01-10T11:24:04;8.50;1.00
5150;DHT22;2593;52.466;13.436;2023-01-10T11:26:39;8.60;1.00
5150;DHT22;2593;52.466;13.436;2023-01-10T11:29:17;8.60;1.00
5150;DHT22;2593;52.466;13.436;2023-01-10T11:31:48;8.50;1.00
5150;DHT22;2593;52.466;13.436;2023-01-10T11:34:30;8.60;1.00
5150;DHT22;2593;52.466;13.436;2023-01-10T11:39:23;8.80;1.00
5150;DHT22;2593;52.466;13.436;2023-01-10T11:41:49;9.00;1.00
5150;DHT22;2593;52.466;13.436;2023-01-10T11:44:32;9.10;99.90
5150;DHT22;2593;52.466;13.436;2023-01-10T11:47:02;9.00;99.90
5150;DHT22;2593;52.466;13.436;2023-01-10T11:49:35;9.00;99.90
5150;DHT22;2593;52.466;13.436;2023-01-10T11:52:27;9.00;99.90
5150;DHT22;2593;52.466;13.436;2023-01-10T11:54:55;8.90;99.90
5150;DHT22;2593;52.466;13.436;2023-01-10T11:57:29;9.00;99.90
5150;DHT22;2593;52.466;13.436;2023-01-10T11:59:59;9.00;99.90
5150;DHT22;2593;52.466;13.436;2023-01-10T12:02:39;9.10;99.90
5150;DHT22;2593;52.466;13.436;2023-01-10T12:05:08;9.30;99.90
5150;DHT22;2593;52.466;13.436;2023-01-10T12:07:59;9.20;99.90
5150;DHT22;2593;52.466;13.436;2023-01-10T12:10:27;9.10;99.90
5150;DHT22;2593;52.466;13.436;2023-01-10T12:12:58;9.10;99.90
5150;DHT22;2593;52.466;13.436;2023-01-10T12:15:29;9.20;99.90
5150;DHT22;2593;52.466;13.436;2023-01-10T12:17:58;9.20;99.90
5150;DHT22;2593;52.466;13.436;2023-01-10T12:20:30;9.30;99.90
5150;DHT22;2593;52.466;13.436;2023-01-10T12:23:02;9.40;99.90
5150;DHT22;2593;52.466;13.436;2023-01-10T12:25:36;9.30;99.90
5150;DHT22;2593;52.466;13.436;2023-01-10T12:28:01;9.30;99.90
5150;DHT22;2593;52.466;13.436;2023-01-10T12:30:36;9.30;99.90
5150;DHT22;2593;52.466;13.436;2023-01-10T12:33:12;9.30;99.90
5150;DHT22;2593;52.466;13.436;2023-01-10T12:35:40;9.40;99.90
5150;DHT22;2593;52.466;13.436;2023-01-10T12:38:32;9.40;99.90
5150;DHT22;2593;52.466;13.436;2023-01-10T12:41:29;9.50;99.90
5150;DHT22;2593;52.466;13.436;2023-01-10T12:44:19;9.40;99.90
5150;DHT22;2593;52.466;13.436;2023-01-10T12:46:49;9.40;99.90
5150;DHT22;2593;52.466;13.436;2023-01-10T12:49:17;9.30;99.90
5150;DHT22;2593;52.466;13.436;2023-01-10T12:51:47;9.30;99.90
5150;DHT22;2593;52.466;13.436;2023-01-10T12:54:20;9.20;99.70
5150;DHT22;2593;52.466;13.436;2023-01-10T12:56:48;9.30;99.90
5150;DHT22;2593;52.466;13.436;2023-01-10T12:59:40;9.30;99.90
5150;DHT22;2593;52.466;13.436;2023-01-10T13:02:16;9.30;99.90
5150;DHT22;2593;52.466;13.436;2023-01-10T13:04:44;9.30;99.90
5150;DHT22;2593;52.466;13.436;2023-01-10T13:07:15;9.30;94.80
5150;DHT22;2593;52.466;13.436;2023-01-10T13:09:42;9.30;94.00
5150;DHT22;2593;52.466;13.436;2023-01-10T13:12:21;9.40;78.00
5150;DHT22;2593;52.466;13.436;2023-01-10T13:15:02;9.40;62.80
5150;DHT22;2593;52.466;13.436;2023-01-10T13:20:28;9.00;65.30
5150;DHT22;2593;52.466;13.436;2023-01-10T13:22:56;9.00;77.10
5150;DHT22;2593;52.466;13.436;2023-01-10T13:25:30;9.00;77.60
5150;DHT22;2593;52.466;13.436;2023-01-10T13:28:06;9.00;91.10
5150;DHT22;2593;52.466;13.436;2023-01-10T13:30:38;9.00;91.90
5150;DHT22;2593;52.466;13.436;2023-01-10T13:35:55;9.00;99.90
5150;DHT22;2593;52.466;13.436;2023-01-10T13:38:32;9.00;94.00
5150;DHT22;2593;52.466;13.436;2023-01-10T13:41:06;9.00;98.70
5150;DHT22;2593;52.466;13.436;2023-01-10T13:43:37;8.90;99.90
5150;DHT22;2593;52.466;13.436;2023-01-10T13:48:44;8.70;99.90
5150;DHT22;2593;52.466;13.436;2023-01-10T13:51:29;8.80;99.90
5150;DHT22;2593;52.466;13.436;2023-01-10T13:53:59;8.70;99.90
5150;DHT22;2593;52.466;13.436;2023-01-10T13:58:54;8.70;99.90
5150;DHT22;2593;52.466;13.436;2023-01-10T14:01:51;8.70;99.90
5150;DHT22;2593;52.466;13.436;2023-01-10T14:04:38;8.60;99.90
5150;DHT22;2593;52.466;13.436;2023-01-10T14:07:38;8.60;99.90
5150;DHT22;2593;52.466;13.436;2023-01-10T14:10:27;8.50;99.90
5150;DHT22;2593;52.466;13.436;2023-01-10T14:13:01;8.50;99.90
5150;DHT22;2593;52.466;13.436;2023-01-10T14:18:20;8.50;99.90
5150;DHT22;2593;52.466;13.436;2023-01-10T14:20:58;8.60;99.90
5150;DHT22;2593;52.466;13.436;2023-01-10T14:26:01;8.50;99.90
5150;DHT22;2593;52.466;13.436;2023-01-10T14:28:29;8.40;99.90
5150;DHT22;2593;52.466;13.436;2023-01-10T14:31:03;8.40;99.90
5150;DHT22;2593;52.466;13.436;2023-01-10T14:33:31;8.30;99.90
5150;DHT22;2593;52.466;13.436;2023-01-10T14:36:06;8.10;99.90
5150;DHT22;2593;52.466;13.436;2023-01-10T14:38:34;8.30;1.00
5150;DHT22;2593;52.466;13.436;2023-01-10T14:41:33;8.40;99.90
5150;DHT22;2593;52.466;13.436;2023-01-10T14:46:47;8.20;99.90
5150;DHT22;2593;52.466;13.436;2023-01-10T14:49:26;8.00;99.90
5150;DHT22;2593;52.466;13.436;2023-01-10T14:51:53;7.90;99.90
5150;DHT22;2593;52.466;13.436;2023-01-10T14:54:25;7.90;99.90
5150;DHT22;2593;52.466;13.436;2023-01-10T14:56:52;7.90;99.90
5150;DHT22;2593;52.466;13.436;2023-01-10T14:59:24;7.80;99.90
5150;DHT22;2593;52.466;13.436;2023-01-10T15:01:55;7.80;1.00
5150;DHT22;2593;52.466;13.436;2023-01-10T15:04:24;7.80;99.90
5150;DHT22;2593;52.466;13.436;2023-01-10T15:07:09;7.70;99.90
5150;DHT22;2593;52.466;13.436;2023-01-10T15:09:35;7.70;1.00
5150;DHT22;2593;52.466;13.436;2023-01-10T15:12:03;7.60;1.00
5150;DHT22;2593;52.466;13.436;2023-01-10T15:14:31;7.50;1.00
5150;DHT22;2593;52.466;13.436;2023-01-10T15:16:59;7.50;1.00
5150;DHT22;2593;52.466;13.436;2023-01-10T15:19:30;7.50;1.00
5150;DHT22;2593;52.466;13.436;2023-01-10T15:21:56;7.50;1.00
5150;DHT22;2593;52.466;13.436;2023-01-10T15:24:34;7.40;1.00
5150;DHT22;2593;52.466;13.436;2023-01-10T15:27:05;7.40;1.00
5150;DHT22;2593;52.466;13.436;2023-01-10T15:29:33;7.30;1.00
5150;DHT22;2593;52.466;13.436;2023-01-10T15:32:09;7.30;1.00
5150;DHT22;2593;52.466;13.436;2023-01-10T15:34:36;7.20;1.00
5150;DHT22;2593;52.466;13.436;2023-01-10T15:37:03;7.20;1.00
5150;DHT22;2593;52.466;13.436;2023-01-10T15:39:36;7.10;1.00
5150;DHT22;2593;52.466;13.436;2023-01-10T15:42:08;7.10;1.00
5150;DHT22;2593;52.466;13.436;2023-01-10T15:44:38;7.20;1.00
5150;DHT22;2593;52.466;13.436;2023-01-10T15:47:07;7.20;1.00
5150;DHT22;2593;52.466;13.436;2023-01-10T15:49:54;7.20;1.00
5150;DHT22;2593;52.466;13.436;2023-01-10T15:52:21;7.30;1.00
5150;DHT22;2593;52.466;13.436;2023-01-10T15:54:46;7.30;1.00
5150;DHT22;2593;52.466;13.436;2023-01-10T15:57:25;7.30;1.00
5150;DHT22;2593;52.466;13.436;2023-01-10T15:59:51;7.30;1.00
5150;DHT22;2593;52.466;13.436;2023-01-10T16:02:28;7.30;1.00
5150;DHT22;2593;52.466;13.436;2023-01-10T16:04:57;7.20;1.00
5150;DHT22;2593;52.466;13.436;2023-01-10T16:07:32;7.30;1.00
5150;DHT22;2593;52.466;13.436;2023-01-10T16:12:35;7.30;1.00
5150;DHT22;2593;52.466;13.436;2023-01-10T16:15:30;7.40;1.00
5150;DHT22;2593;52.466;13.436;2023-01-10T16:17:57;7.40;1.00
5150;DHT22;2593;52.466;13.436;2023-01-10T16:20:27;7.40;1.00
5150;DHT22;2593;52.466;13.436;2023-01-10T16:22:54;7.40;1.00
5150;DHT22;2593;52.466;13.436;2023-01-10T16:25:32;7.30;1.00
5150;DHT22;2593;52.466;13.436;2023-01-10T16:27:59;7.30;1.00
5150;DHT22;2593;52.466;13.436;2023-01-10T16:30:29;7.30;1.00
5150;DHT22;2593;52.466;13.436;2023-01-10T16:32:56;7.30;1.00
5150;DHT22;2593;52.466;13.436;2023-01-10T16:35:23;7.20;1.00
5150;DHT22;2593;52.466;13.436;2023-01-10T16:37:54;7.20;1.00
5150;DHT22;2593;52.466;13.436;2023-01-10T16:40:32;7.20;1.00
5150;DHT22;2593;52.466;13.436;2023-01-10T16:42:59;7.10;1.00
5150;DHT22;2593;52.466;13.436;2023-01-10T16:45:48;7.10;1.00
5150;DHT22;2593;52.466;13.436;2023-01-10T16:48:15;7.10;28.40
5150;DHT22;2593;52.466;13.436;2023-01-10T16:50:41;7.10;86.10
5150;DHT22;2593;52.466;13.436;2023-01-10T16:53:12;7.10;99.90
5150;DHT22;2593;52.466;13.436;2023-01-10T16:55:44;7.10;90.90
5150;DHT22;2593;52.466;13.436;2023-01-10T16:58:11;7.10;61.10
5150;DHT22;2593;52.466;13.436;2023-01-10T17:00:39;7.10;4.70
5150;DHT22;2593;52.466;13.436;2023-01-10T17:03:11;7.10;37.40
5150;DHT22;2593;52.466;13.436;2023-01-10T17:05:37;7.10;58.70
5150;DHT22;2593;52.466;13.436;2023-01-10T17:08:05;7.00;96.50
5150;DHT22;2593;52.466;13.436;2023-01-10T17:10:33;7.00;99.90
5150;DHT22;2593;52.466;13.436;2023-01-10T17:13:00;6.90;99.90
5150;DHT22;2593;52.466;13.436;2023-01-10T17:15:27;6.90;99.90
5150;DHT22;2593;52.466;13.436;2023-01-10T17:17:53;6.90;99.90
5150;DHT22;2593;52.466;13.436;2023-01-10T17:20:19;6.80;99.90
5150;DHT22;2593;52.466;13.436;2023-01-10T17:22:45;6.80;99.90
5150;DHT22;2593;52.466;13.436;2023-01-10T17:25:15;6.80;99.90
5150;DHT22;2593;52.466;13.436;2023-01-10T17:27:42;6.80;99.90
5150;DHT22;2593;52.466;13.436;2023-01-10T17:30:09;6.70;99.90
5150;DHT22;2593;52.466;13.436;2023-01-10T17:32:35;6.70;99.90
5150;DHT22;2593;52.466;13.436;2023-01-10T17:35:02;6.70;99.90
5150;DHT22;2593;52.466;13.436;2023-01-10T17:37:27;6.70;99.90
5150;DHT22;2593;52.466;13.436;2023-01-10T17:39:53;6.60;99.90
5150;DHT22;2593;52.466;13.436;2023-01-10T17:42:19;6.60;1.00
5150;DHT22;2593;52.466;13.436;2023-01-10T17:44:46;6.60;1.00
5150;DHT22;2593;52.466;13.436;2023-01-10T17:47:12;6.50;1.00
5150;DHT22;2593;52.466;13.436;2023-01-10T17:49:37;6.60;1.00
5150;DHT22;2593;52.466;13.436;2023-01-10T17:52:06;6.60;1.00
5150;DHT22;2593;52.466;13.436;2023-01-10T17:54:32;6.60;1.00
5150;DHT22;2593;52.466;13.436;2023-01-10T17:56:59;6.60;1.00
5150;DHT22;2593;52.466;13.436;2023-01-10T17:59:25;6.50;1.00
5150;DHT22;2593;52.466;13.436;2023-01-10T18:01:51;6.40;1.00
5150;DHT22;2593;52.466;13.436;2023-01-10T18:04:17;6.50;1.00
5150;DHT22;2593;52.466;13.436;2023-01-10T18:06:43;6.50;1.00